Ocean Highway — H3IE — position and weather

sailwx.info

Track history (hours):
 
Tides and Currents Weather Stations Pressure Air Temp Water Temp Dewpoint Dewpoint Depression Visibility Wind Speed Wind Dir Waves Ship Positions

Ocean Highway

Last reported at 2014-Jul-24 17:26 UTC. Time now 2014-Jul-24 19:23 UTC.
Position N 36°53' E 023°33'.

Length 179.1 m; beam 32.2 m.

Type: Cargo ship. MMSI: 353951000.

Date/timePositionNaut miles runAvg speedWind from/ knotsBaromVisibWave heightAir tempDewpointWater temp
2014-Jul-24 17:26N 36°53' E 023°33'3216.7
2014-Jul-24 15:30N 37°24' E 023°40'1616.4
2014-Jul-24 14:32N 37°40' E 023°42'1515.5
2014-Jul-24 13:34N 37°54' E 023°37'3 3.0
2014-Jul-24 12:31N 37°58' E 023°36'0 0.0
2014-Jul-24 10:13N 37°58' E 023°36'0 0.0
2014-Jul-24 09:31N 37°58' E 023°36'0 0.0
2014-Jul-24 08:31N 37°58' E 023°36'0 0.0
2014-Jul-24 07:31N 37°58' E 023°36'0 0.0
2014-Jul-24 06:31N 37°58' E 023°36'2 2.2
2014-Jul-24 05:33N 37°55' E 023°36'1 0.9
2014-Jul-24 04:33N 37°55' E 023°37'1 1.3
2014-Jul-24 03:33N 37°53' E 023°37'1414.5
2014-Jul-24 02:33N 37°41' E 023°46'1615.7
2014-Jul-24 01:32N 37°25' E 023°52'1515.7
2014-Jul-24 00:33N 37°11' E 023°59'1615.8
2014-Jul-23 23:33N 36°56' E 024°05'1815.7
2014-Jul-23 22:26N 36°39' E 024°12'1314.8
2014-Jul-23 21:33N 36°30' E 024°23'1515.0
2014-Jul-23 20:33N 36°22' E 024°39'1514.9
2014-Jul-23 19:33N 36°14' E 024°55'1514.9
2014-Jul-23 18:33N 36°05' E 025°10'1515.3
2014-Jul-23 17:33N 35°57' E 025°26'1515.5
2014-Jul-23 16:33N 35°48' E 025°42'1515.3
2014-Jul-23 15:33N 35°40' E 025°57'16415.9
2014-Jul-23 05:14N 34°00' E 028°36'1816.0
2014-Jul-23 04:05N 33°49' E 028°53'1515.7
2014-Jul-23 03:06N 33°39' E 029°08'915.6
2014-Jul-23 02:32N 33°34' E 029°16'1615.5
2014-Jul-23 01:32N 33°24' E 029°30'1515.7
2014-Jul-23 00:33N 33°15' E 029°45'1615.6
2014-Jul-22 23:33N 33°05' E 029°59'1616.0
2014-Jul-22 22:33N 32°55' E 030°14'1616.0
2014-Jul-22 21:33N 32°45' E 030°29'1616.0
2014-Jul-22 20:33N 32°35' E 030°44'1615.9
2014-Jul-22 19:33N 32°25' E 030°59'1616.0
2014-Jul-22 18:33N 32°16' E 031°14'1616.0
2014-Jul-22 17:33N 32°06' E 031°29'1615.8
2014-Jul-22 16:33N 31°56' E 031°43'1515.4
2014-Jul-22 15:33N 31°46' E 031°57'1515.2
2014-Jul-22 14:33N 31°36' E 032°10'1614.8
2014-Jul-22 13:27N 31°24' E 032°23'  
Track history (hours):
 
Tides and Currents Weather Stations Pressure Air Temp Water Temp Dewpoint Dewpoint Depression Visibility Wind Speed Wind Dir Waves Ship Positions

Ocean Highway

Last reported at 2014-Jul-24 17:26 UTC. Time now 2014-Jul-24 19:23 UTC.
Position N 36°53' E 023°33'.

Length 179.1 m; beam 32.2 m.

Type: Cargo ship. MMSI: 353951000.

Date/timePositionNaut miles runAvg speedWind from/ knotsBaromVisibWave heightAir tempDewpointWater temp
2014-Jul-24 17:26N 36°53' E 023°33'3216.7
2014-Jul-24 15:30N 37°24' E 023°40'1616.4
2014-Jul-24 14:32N 37°40' E 023°42'1515.5
2014-Jul-24 13:34N 37°54' E 023°37'3 3.0
2014-Jul-24 12:31N 37°58' E 023°36'0 0.0
2014-Jul-24 10:13N 37°58' E 023°36'0 0.0
2014-Jul-24 09:31N 37°58' E 023°36'0 0.0
2014-Jul-24 08:31N 37°58' E 023°36'0 0.0
2014-Jul-24 07:31N 37°58' E 023°36'0 0.0
2014-Jul-24 06:31N 37°58' E 023°36'2 2.2
2014-Jul-24 05:33N 37°55' E 023°36'1 0.9
2014-Jul-24 04:33N 37°55' E 023°37'1 1.3
2014-Jul-24 03:33N 37°53' E 023°37'1414.5
2014-Jul-24 02:33N 37°41' E 023°46'1615.7
2014-Jul-24 01:32N 37°25' E 023°52'1515.7
2014-Jul-24 00:33N 37°11' E 023°59'1615.8
2014-Jul-23 23:33N 36°56' E 024°05'1815.7
2014-Jul-23 22:26N 36°39' E 024°12'1314.8
2014-Jul-23 21:33N 36°30' E 024°23'1515.0
2014-Jul-23 20:33N 36°22' E 024°39'1514.9
2014-Jul-23 19:33N 36°14' E 024°55'1514.9
2014-Jul-23 18:33N 36°05' E 025°10'1515.3
2014-Jul-23 17:33N 35°57' E 025°26'1515.5
2014-Jul-23 16:33N 35°48' E 025°42'1515.3
2014-Jul-23 15:33N 35°40' E 025°57'16415.9
2014-Jul-23 05:14N 34°00' E 028°36'1816.0
2014-Jul-23 04:05N 33°49' E 028°53'1515.7
2014-Jul-23 03:06N 33°39' E 029°08'915.6
2014-Jul-23 02:32N 33°34' E 029°16'1615.5
2014-Jul-23 01:32N 33°24' E 029°30'1515.7
2014-Jul-23 00:33N 33°15' E 029°45'1615.6
2014-Jul-22 23:33N 33°05' E 029°59'1616.0
2014-Jul-22 22:33N 32°55' E 030°14'1616.0
2014-Jul-22 21:33N 32°45' E 030°29'1616.0
2014-Jul-22 20:33N 32°35' E 030°44'1615.9
2014-Jul-22 19:33N 32°25' E 030°59'1616.0
2014-Jul-22 18:33N 32°16' E 031°14'1616.0
2014-Jul-22 17:33N 32°06' E 031°29'1615.8
2014-Jul-22 16:33N 31°56' E 031°43'1515.4
2014-Jul-22 15:33N 31°46' E 031°57'1515.2
2014-Jul-22 14:33N 31°36' E 032°10'1614.8
2014-Jul-22 13:27N 31°24' E 032°23'  

Dump ship's entire track history